Time;durP1;ratioP1;P1;durP2;ratioP2;P2;SDS_P1;SDS_P2;PMS_P1;PMS_P2;Temp;Humidity;BMP_temperature;BMP_pressure;BME280_temperature;BME280_humidity;BME280_pressure;Samples;Min_cycle;Max_cycle;Signal;HPM_P1;HPM_P2
2021/03/21 00:00:29;;;;;;;4.37;2.97;;;;;;;-0.58;74.28;101138.50;4976992;28;20263;-72
2021/03/21 00:02:55;;;;;;;4.13;2.90;;;;;;;-0.57;74.07;101145.34;4981288;28;20692;-72
2021/03/21 00:05:21;;;;;;;4.07;3.20;;;;;;;-0.53;73.74;101132.63;4976312;28;20188;-72
2021/03/21 00:07:52;;;;;;;5.27;3.27;;;;;;;-0.52;73.18;101124.13;4980027;28;20235;-72
2021/03/21 00:10:19;;;;;;;4.23;3.07;;;;;;;-0.51;73.69;101121.63;4981442;28;20228;-73
2021/03/21 00:12:45;;;;;;;6.60;3.00;;;;;;;-0.50;73.42;101120.75;4976802;28;20223;-72
2021/03/21 00:15:12;;;;;;;7.23;2.77;;;;;;;-0.49;73.52;101121.63;4980980;28;20228;-72
2021/03/21 00:17:38;;;;;;;3.87;2.80;;;;;;;-0.49;74.36;101116.50;4980480;28;20279;-72
2021/03/21 00:20:07;;;;;;;3.83;2.50;;;;;;;-0.47;72.78;101117.44;4985753;28;20209;-72
2021/03/21 00:22:33;;;;;;;4.03;3.00;;;;;;;-0.46;73.25;101108.91;4978950;28;20210;-72
2021/03/21 00:24:59;;;;;;;2.63;2.40;;;;;;;-0.45;73.62;101105.53;4981525;28;20206;-72
2021/03/21 00:27:26;;;;;;;3.40;2.53;;;;;;;-0.45;73.71;101095.28;4977185;28;20223;-72
2021/03/21 00:29:52;;;;;;;5.13;2.97;;;;;;;-0.45;73.76;101091.00;4979042;28;20223;-72
2021/03/21 00:32:18;;;;;;;3.57;2.47;;;;;;;-0.43;73.46;101091.06;4982198;28;20328;-72
2021/03/21 00:34:44;;;;;;;2.80;2.53;;;;;;;-0.43;72.69;101088.50;4975283;28;20201;-72
2021/03/21 00:37:10;;;;;;;3.50;2.50;;;;;;;-0.41;73.12;101090.25;4982811;28;20208;-72
2021/03/21 00:39:36;;;;;;;3.63;2.33;;;;;;;-0.40;72.93;101074.06;4978685;28;20234;-72
2021/03/21 00:42:03;;;;;;;3.03;2.50;;;;;;;-0.39;72.60;101063.00;4985214;28;20201;-72
2021/03/21 00:44:30;;;;;;;5.03;2.40;;;;;;;-0.36;72.35;101056.22;4994283;28;20202;-72
2021/03/21 00:46:56;;;;;;;4.67;2.63;;;;;;;-0.35;71.75;101065.63;4979710;28;20234;-72
2021/03/21 00:49:22;;;;;;;3.33;2.40;;;;;;;-0.33;72.22;101059.72;4992921;28;20229;-73
2021/03/21 00:51:48;;;;;;;3.30;2.20;;;;;;;-0.31;71.27;101055.50;4979263;28;20213;-73
2021/03/21 00:54:15;;;;;;;4.53;2.83;;;;;;;-0.31;72.39;101055.50;4987046;28;20560;-73
2021/03/21 00:56:41;;;;;;;3.97;2.40;;;;;;;-0.29;71.34;101048.72;4975245;28;21156;-72
2021/03/21 00:59:08;;;;;;;3.13;2.30;;;;;;;-0.29;71.69;101047.84;4987173;28;20227;-73
2021/03/21 01:01:36;;;;;;;3.00;2.17;;;;;;;-0.28;72.01;101053.03;4976665;28;20708;-73
2021/03/21 01:04:03;;;;;;;5.00;2.50;;;;;;;-0.28;71.79;101044.44;4977385;28;20217;-73
2021/03/21 01:06:29;;;;;;;4.27;2.53;;;;;;;-0.27;71.44;101034.22;4971357;28;20210;-73
2021/03/21 01:08:57;;;;;;;3.77;2.30;;;;;;;-0.24;71.00;101030.91;4976234;28;20865;-72
2021/03/21 01:11:25;;;;;;;6.47;2.47;;;;;;;-0.22;70.66;101022.41;4986575;28;20697;-72
2021/03/21 01:13:52;;;;;;;4.37;2.60;;;;;;;-0.20;71.11;101017.31;4979927;28;20303;-72
2021/03/21 01:16:21;;;;;;;4.33;2.57;;;;;;;-0.20;71.09;101013.03;4981667;28;20734;-72
2021/03/21 01:18:48;;;;;;;4.57;2.50;;;;;;;-0.20;71.52;101018.19;4977613;28;20699;-73
2021/03/21 01:21:15;;;;;;;3.30;2.30;;;;;;;-0.21;71.18;101000.22;4979923;28;20207;-72
2021/03/21 01:23:42;;;;;;;3.10;2.53;;;;;;;-0.22;71.90;100999.34;4979661;28;20219;-73
2021/03/21 01:26:10;;;;;;;3.40;2.37;;;;;;;-0.21;72.19;100985.72;4976996;28;20233;-73
2021/03/21 01:28:37;;;;;;;4.27;2.60;;;;;;;-0.23;72.28;100986.47;4986748;28;20731;-72
2021/03/21 01:31:06;;;;;;;2.83;2.27;;;;;;;-0.21;72.24;100977.16;4976614;28;20316;-72
2021/03/21 01:33:34;;;;;;;4.87;2.37;;;;;;;-0.22;71.48;100976.28;4969074;28;20287;-72
2021/03/21 01:36:02;;;;;;;5.00;2.50;;;;;;;-0.20;71.90;100972.03;4988519;28;20237;-73
2021/03/21 01:38:28;;;;;;;3.90;2.30;;;;;;;-0.21;72.10;100974.59;4979455;28;20330;-72
2021/03/21 01:40:58;;;;;;;3.13;2.30;;;;;;;-0.16;72.34;100969.56;4976655;28;20202;-72
2021/03/21 01:43:30;;;;;;;4.00;2.80;;;;;;;-0.18;72.98;100953.28;4979443;28;20717;-72
2021/03/21 01:45:57;;;;;;;4.37;2.83;;;;;;;-0.18;73.42;100943.03;4972328;28;20207;-73
2021/03/21 01:48:34;;;;;;;5.53;3.07;;;;;;;-0.18;73.30;100943.03;4979034;28;20492;-73
2021/03/21 01:51:03;;;;;;;3.57;2.50;;;;;;;-0.23;74.32;100932.66;4987517;28;20416;-72
2021/03/21 01:53:31;;;;;;;3.27;2.40;;;;;;;-0.22;74.99;100932.69;4978408;28;20301;-72
2021/03/21 01:55:58;;;;;;;4.23;2.47;;;;;;;-0.22;74.33;100934.41;4985600;28;20216;-73
2021/03/21 01:58:28;;;;;;;4.40;2.50;;;;;;;-0.22;75.07;100929.28;4976170;28;20194;-72
2021/03/21 02:00:58;;;;;;;4.53;2.67;;;;;;;-0.20;75.11;100922.50;4980702;28;20199;-73
2021/03/21 02:03:24;;;;;;;5.27;2.47;;;;;;;-0.19;75.38;100913.97;4971542;28;20202;-73
2021/03/21 02:06:01;;;;;;;4.20;3.07;;;;;;;-0.19;75.48;100908.84;4961818;28;21385;-72
2021/03/21 02:08:46;;;;;;;4.70;3.00;;;;;;;-0.17;76.44;100902.06;4974371;28;20258;-72
2021/03/21 02:11:22;;;;;;;3.80;2.83;;;;;;;-0.17;77.09;100891.81;4979014;28;20236;-72
2021/03/21 02:13:58;;;;;;;4.97;2.70;;;;;;;-0.16;77.81;100890.97;4993956;28;20269;-72
2021/03/21 02:16:29;;;;;;;4.83;2.93;;;;;;;-0.16;78.38;100880.72;4979191;28;20193;-72
2021/03/21 02:19:01;;;;;;;4.23;2.77;;;;;;;-0.16;78.97;100883.28;4974026;28;20248;-72
2021/03/21 02:21:32;;;;;;;2.83;2.33;;;;;;;-0.16;79.08;100880.72;4978441;28;20215;-72
2021/03/21 02:24:26;;;;;;;4.83;2.40;;;;;;;-0.16;79.87;100882.41;4986691;28;20670;-73
2021/03/21 02:27:02;;;;;;;4.50;2.80;;;;;;;-0.16;80.16;100877.28;4980931;28;20291;-72
2021/03/21 02:29:43;;;;;;;5.40;2.63;;;;;;;-0.17;80.55;100866.19;4984576;28;20344;-72
2021/03/21 02:32:13;;;;;;;3.83;2.63;;;;;;;-0.16;81.01;100857.63;4982409;28;20240;-72
2021/03/21 02:34:50;;;;;;;3.40;2.53;;;;;;;-0.14;81.06;100857.66;4989609;28;20218;-73
2021/03/21 02:37:22;;;;;;;4.27;2.90;;;;;;;-0.13;81.05;100864.53;4981347;28;20212;-72
2021/03/21 02:39:52;;;;;;;4.53;3.00;;;;;;;-0.12;80.88;100845.75;4986295;28;20208;-72
2021/03/21 02:42:23;;;;;;;5.63;3.10;;;;;;;-0.13;81.42;100839.78;4978948;28;20666;-73
2021/03/21 02:44:54;;;;;;;5.17;2.83;;;;;;;-0.12;81.57;100830.38;4985325;28;20202;-72
2021/03/21 02:47:25;;;;;;;3.43;2.80;;;;;;;-0.12;81.87;100827.81;4987605;28;20666;-73
2021/03/21 02:49:54;;;;;;;3.17;2.43;;;;;;;-0.10;81.63;100823.59;4982838;28;20540;-73
2021/03/21 02:52:25;;;;;;;4.53;2.80;;;;;;;-0.08;82.06;100817.66;4975932;28;20218;-73
2021/03/21 02:55:00;;;;;;;4.27;2.90;;;;;;;-0.07;81.82;100810.81;4981495;28;20613;-73
2021/03/21 02:57:31;;;;;;;5.47;2.80;;;;;;;-0.06;82.50;100805.72;4980779;28;20671;-73
2021/03/21 02:59:59;;;;;;;4.33;3.07;;;;;;;-0.06;82.69;100795.47;4977807;28;20244;-72
2021/03/21 03:02:29;;;;;;;5.23;2.90;;;;;;;-0.02;82.39;100801.53;4984479;28;20188;-73
2021/03/21 03:05:01;;;;;;;5.17;3.13;;;;;;;-0.02;82.76;100791.28;4976998;28;20200;-73
2021/03/21 03:07:34;;;;;;;3.90;3.07;;;;;;;-0.02;82.81;100784.47;4987229;28;20871;-73
2021/03/21 03:10:07;;;;;;;4.83;3.13;;;;;;;0.01;83.26;100775.09;4976900;28;20961;-73
2021/03/21 03:12:35;;;;;;;3.87;3.03;;;;;;;0.02;83.13;100775.16;4983503;28;20219;-73
2021/03/21 03:15:05;;;;;;;4.07;2.90;;;;;;;0.04;83.14;100767.47;4989871;28;20305;-73
2021/03/21 03:17:38;;;;;;;4.37;3.17;;;;;;;0.05;83.06;100771.75;4982035;28;20262;-72
2021/03/21 03:20:12;;;;;;;4.07;2.70;;;;;;;0.07;83.39;100763.28;4982278;28;20235;-72
2021/03/21 03:22:46;;;;;;;5.63;3.10;;;;;;;0.10;83.01;100765.03;4981198;28;21009;-72
2021/03/21 03:25:19;;;;;;;3.67;2.77;;;;;;;0.09;83.41;100747.91;4982410;28;20232;-73
2021/03/21 03:27:57;;;;;;;3.63;2.93;;;;;;;0.12;83.38;100750.53;4979948;28;20638;-73
2021/03/21 03:30:28;;;;;;;5.23;3.07;;;;;;;0.13;83.77;100731.75;4983412;28;20232;-72
2021/03/21 03:32:54;;;;;;;4.63;3.20;;;;;;;0.16;83.91;100735.22;4982395;28;20218;-73
2021/03/21 03:35:22;;;;;;;5.63;3.17;;;;;;;0.19;84.18;100729.28;4983651;28;20284;-73
2021/03/21 03:37:49;;;;;;;4.63;3.47;;;;;;;0.19;84.92;100721.59;4978302;28;20213;-73
2021/03/21 03:40:17;;;;;;;4.00;3.10;;;;;;;0.22;85.61;100713.97;4986461;28;20223;-73
2021/03/21 03:42:51;;;;;;;4.07;2.80;;;;;;;0.24;85.96;100711.41;4977501;28;20216;-72
2021/03/21 03:45:23;;;;;;;5.80;3.00;;;;;;;0.25;86.51;100708.03;4982870;28;20193;-73
2021/03/21 03:48:02;;;;;;;5.00;3.33;;;;;;;0.24;87.17;100696.88;4978216;28;20693;-73
2021/03/21 03:50:39;;;;;;;5.30;3.20;;;;;;;0.25;86.83;100702.91;4982787;28;20863;-73
2021/03/21 03:53:14;;;;;;;5.17;3.60;;;;;;;0.26;86.94;100699.47;4976107;28;20249;-73
2021/03/21 03:55:47;;;;;;;4.23;3.07;;;;;;;0.26;87.16;100694.34;4981799;28;20228;-73
2021/03/21 03:58:19;;;;;;;5.03;3.10;;;;;;;0.27;86.83;100683.28;4987336;28;20421;-73
2021/03/21 04:00:51;;;;;;;5.00;3.30;;;;;;;0.26;87.06;100682.38;4994279;28;20286;-72
2021/03/21 04:03:27;;;;;;;5.20;2.90;;;;;;;0.25;87.50;100678.13;4984450;28;20499;-73
2021/03/21 04:05:57;;;;;;;4.17;2.90;;;;;;;0.26;87.31;100681.53;4978152;28;20280;-73
2021/03/21 04:08:32;;;;;;;4.97;3.40;;;;;;;0.25;87.72;100678.13;4983390;28;20688;-73
2021/03/21 04:11:04;;;;;;;6.07;3.47;;;;;;;0.26;88.27;100668.72;4993650;28;20209;-73
2021/03/21 04:13:34;;;;;;;8.50;3.80;;;;;;;0.27;88.55;100660.19;4975715;28;20218;-73
2021/03/21 04:16:00;;;;;;;6.57;3.53;;;;;;;0.29;88.65;100661.06;4979260;28;20665;-73
2021/03/21 04:18:33;;;;;;;7.67;3.90;;;;;;;0.30;89.28;100657.66;4975104;28;20227;-73
2021/03/21 04:21:04;;;;;;;7.17;3.63;;;;;;;0.30;89.28;100653.41;4979872;28;20808;-73
2021/03/21 04:23:33;;;;;;;6.13;3.43;;;;;;;0.32;89.23;100645.75;4983704;28;20202;-73
2021/03/21 04:26:04;;;;;;;6.47;3.30;;;;;;;0.32;88.82;100651.72;4981352;28;20534;-73
2021/03/21 04:28:36;;;;;;;6.50;3.53;;;;;;;0.34;88.94;100646.63;4979850;28;20255;-72
2021/03/21 04:31:05;;;;;;;5.70;3.70;;;;;;;0.33;89.64;100637.19;4971337;28;20204;-73
2021/03/21 04:33:36;;;;;;;5.87;3.37;;;;;;;0.32;89.83;100636.34;4980808;28;20254;-73
2021/03/21 04:36:08;;;;;;;4.80;3.10;;;;;;;0.31;89.90;100632.03;4991476;28;20683;-73
2021/03/21 04:38:37;;;;;;;6.13;3.63;;;;;;;0.30;90.33;100635.44;4978889;28;20221;-72
2021/03/21 04:41:06;;;;;;;6.90;3.23;;;;;;;0.28;90.97;100621.75;4981609;28;20211;-73
2021/03/21 04:43:37;;;;;;;4.53;3.33;;;;;;;0.25;91.33;100616.56;4976149;28;20210;-73
2021/03/21 04:46:09;;;;;;;4.47;3.17;;;;;;;0.26;91.36;100614.84;4983314;28;20220;-72
2021/03/21 04:48:36;;;;;;;6.53;3.27;;;;;;;0.25;91.68;100606.31;4979926;28;20243;-72
2021/03/21 04:51:07;;;;;;;4.80;3.33;;;;;;;0.26;91.87;100612.28;4983141;28;20252;-72
2021/03/21 04:54:03;;;;;;;5.63;3.30;;;;;;;0.25;92.62;100610.56;4977904;28;20217;-73
2021/03/21 04:56:35;;;;;;;4.70;3.23;;;;;;;0.25;93.39;100610.56;4978420;28;20315;-73
2021/03/21 04:59:06;;;;;;;4.63;3.10;;;;;;;0.23;93.28;100618.25;4975685;28;20230;-72
2021/03/21 05:01:36;;;;;;;5.23;3.43;;;;;;;0.22;93.94;100602.81;4976605;28;20224;-73
2021/03/21 05:04:06;;;;;;;5.40;3.60;;;;;;;0.20;94.25;100609.63;4979327;28;20784;-73
2021/03/21 05:06:43;;;;;;;4.80;3.27;;;;;;;0.20;94.40;100604.50;4978989;28;20468;-72
2021/03/21 05:09:16;;;;;;;5.87;4.10;;;;;;;0.16;95.19;100595.91;4987678;28;20235;-72
2021/03/21 05:11:47;;;;;;;4.83;3.33;;;;;;;0.16;96.05;100601.03;4978107;28;20261;-72
2021/03/21 05:14:20;;;;;;;7.03;3.93;;;;;;;0.16;96.43;100591.63;4983541;28;20265;-73
2021/03/21 05:16:57;;;;;;;5.83;3.93;;;;;;;0.17;96.88;100592.50;4974799;28;21634;-73
2021/03/21 05:19:31;;;;;;;5.17;3.93;;;;;;;0.19;97.36;100583.09;4980258;28;20248;-73
2021/03/21 05:22:05;;;;;;;6.33;3.77;;;;;;;0.21;97.32;100586.56;4977178;28;20196;-73
2021/03/21 05:24:38;;;;;;;5.47;3.53;;;;;;;0.22;97.74;100580.59;4982989;28;20607;-73
2021/03/21 05:27:09;;;;;;;7.40;3.90;;;;;;;0.20;98.00;100578.88;4980200;28;20279;-73
2021/03/21 05:29:44;;;;;;;6.03;3.80;;;;;;;0.22;97.79;100578.03;4984246;28;20226;-73
2021/03/21 05:32:13;;;;;;;6.00;4.00;;;;;;;0.22;97.99;100569.50;4978718;28;20752;-73
2021/03/21 05:34:40;;;;;;;7.47;4.00;;;;;;;0.24;98.25;100578.06;4981258;28;20292;-73
2021/03/21 05:37:20;;;;;;;7.17;4.20;;;;;;;0.25;97.99;100578.09;4979917;28;20396;-73
2021/03/21 05:39:56;;;;;;;6.07;3.97;;;;;;;0.27;98.24;100570.44;4979005;28;20236;-73
2021/03/21 05:42:42;;;;;;;7.13;4.20;;;;;;;0.28;98.37;100565.31;4983721;28;20207;-73
2021/03/21 05:45:47;;;;;;;8.53;3.83;;;;;;;0.32;98.71;100563.66;4979500;28;20281;-73
2021/03/21 05:48:37;;;;;;;6.17;3.83;;;;;;;0.34;99.08;100552.56;4976823;28;20238;-73
2021/03/21 05:51:29;;;;;;;6.33;3.87;;;;;;;0.37;99.28;100552.63;4982261;28;20207;-73
2021/03/21 05:54:30;;;;;;;7.70;4.50;;;;;;;0.42;99.58;100556.94;4983189;28;20724;-73
2021/03/21 05:57:23;;;;;;;5.90;4.00;;;;;;;0.44;100.00;100555.25;4981992;28;21110;-73
2021/03/21 06:00:19;;;;;;;5.77;3.97;;;;;;;0.44;100.00;100552.69;4982038;28;20324;-73
2021/03/21 06:03:15;;;;;;;6.57;4.63;;;;;;;0.44;100.00;100551.00;4987210;28;20711;-73
2021/03/21 06:06:05;;;;;;;6.67;5.00;;;;;;;0.45;100.00;100539.91;4969797;28;22293;-73
2021/03/21 06:08:36;;;;;;;8.77;4.97;;;;;;;0.46;100.00;100540.75;4982978;28;20235;-73
2021/03/21 06:11:28;;;;;;;8.70;4.77;;;;;;;0.47;100.00;100545.03;4979866;28;20202;-72
2021/03/21 06:14:22;;;;;;;7.67;4.97;;;;;;;0.43;100.00;100539.00;4986073;28;20622;-73
2021/03/21 06:17:08;;;;;;;8.37;5.13;;;;;;;0.43;100.00;100544.16;4986889;28;20212;-73
2021/03/21 06:19:53;;;;;;;10.30;5.70;;;;;;;0.43;100.00;100543.28;4987033;28;20903;-73
2021/03/21 06:22:53;;;;;;;8.50;5.23;;;;;;;0.44;100.00;100537.31;4979943;28;20207;-73
2021/03/21 06:25:51;;;;;;;9.67;5.17;;;;;;;0.48;100.00;100534.81;4986754;28;20239;-73
2021/03/21 06:29:08;;;;;;;7.97;5.63;;;;;;;0.50;100.00;100538.25;4978473;28;20203;-73
2021/03/21 06:32:02;;;;;;;8.70;4.97;;;;;;;0.52;100.00;100528.03;4932240;29;20209;-73
2021/03/21 06:34:34;;;;;;;8.77;5.93;;;;;;;0.53;100.00;100525.47;4921466;29;20509;-73
2021/03/21 06:37:06;;;;;;;10.07;6.03;;;;;;;0.58;100.00;100517.81;4979121;28;20235;-73
2021/03/21 06:39:52;;;;;;;11.13;6.27;;;;;;;0.62;100.00;100521.31;4976582;28;20229;-72
2021/03/21 06:42:41;;;;;;;9.67;6.03;;;;;;;0.64;100.00;100517.06;5001519;28;20288;-73
2021/03/21 06:45:42;;;;;;;9.33;5.90;;;;;;;0.67;100.00;100511.94;4950044;28;20736;-73
2021/03/21 06:48:42;;;;;;;10.80;6.37;;;;;;;0.67;100.00;100507.69;4989121;28;20409;-73
2021/03/21 06:51:20;;;;;;;10.63;6.50;;;;;;;0.67;100.00;100499.13;4982073;28;20202;-73
2021/03/21 06:53:55;;;;;;;10.87;6.43;;;;;;;0.68;100.00;100491.44;4984943;28;20220;-73
2021/03/21 06:56:52;;;;;;;11.30;7.83;;;;;;;0.70;100.00;100497.47;4980148;28;20664;-73
2021/03/21 06:59:49;;;;;;;10.17;6.77;;;;;;;0.74;100.00;100493.25;4985763;28;20957;-73
2021/03/21 07:02:50;;;;;;;9.67;6.40;;;;;;;0.79;100.00;100488.13;4978824;28;20311;-73
2021/03/21 07:05:45;;;;;;;11.37;6.43;;;;;;;0.87;100.00;100486.53;4975863;28;20204;-73
2021/03/21 07:09:02;;;;;;;11.17;7.17;;;;;;;0.92;100.00;100490.88;4985190;28;20196;-73
2021/03/21 07:11:45;;;;;;;10.07;6.63;;;;;;;0.97;100.00;100474.63;4983877;28;20216;-73
2021/03/21 07:14:41;;;;;;;9.20;6.47;;;;;;;1.00;100.00;100478.09;4990482;28;20221;-73
2021/03/21 07:17:31;;;;;;;11.20;7.13;;;;;;;1.05;100.00;100468.75;4980421;28;20708;-73
2021/03/21 07:20:27;;;;;;;12.00;7.33;;;;;;;1.11;100.00;100468.81;4980209;28;20276;-73
2021/03/21 07:23:44;;;;;;;12.10;7.33;;;;;;;1.21;100.00;100461.19;4976200;28;20251;-73
2021/03/21 07:26:26;;;;;;;13.73;8.10;;;;;;;1.35;100.00;100458.75;4985644;28;20289;-73
2021/03/21 07:29:18;;;;;;;11.20;7.40;;;;;;;1.49;100.00;100452.88;4976044;28;20241;-73
2021/03/21 07:31:57;;;;;;;11.77;7.40;;;;;;;1.60;100.00;100449.53;4980150;28;20648;-73
2021/03/21 07:34:49;;;;;;;12.13;8.10;;;;;;;1.63;100.00;100459.84;4975942;28;20343;-73
2021/03/21 07:37:20;;;;;;;10.37;7.17;;;;;;;1.66;100.00;100463.31;4993222;28;20224;-73
2021/03/21 07:39:59;;;;;;;12.63;8.70;;;;;;;1.70;100.00;100453.91;4979733;28;20256;-73
2021/03/21 07:42:40;;;;;;;12.93;8.30;;;;;;;1.77;100.00;100450.53;4978056;28;20626;-73
2021/03/21 07:45:28;;;;;;;12.23;7.17;;;;;;;1.79;100.00;100448.81;4976301;28;20712;-73
2021/03/21 07:48:24;;;;;;;15.87;8.37;;;;;;;1.81;100.00;100452.28;4984122;28;20213;-73
2021/03/21 07:51:06;;;;;;;10.33;7.53;;;;;;;1.82;100.00;100442.84;4977870;28;20684;-73
2021/03/21 07:53:36;;;;;;;13.63;8.40;;;;;;;1.90;100.00;100443.78;4984193;28;20217;-73
2021/03/21 07:56:08;;;;;;;12.87;7.60;;;;;;;1.94;100.00;100434.38;4981163;28;20217;-73
2021/03/21 07:58:38;;;;;;;12.33;7.73;;;;;;;1.98;100.00;100436.09;4983232;28;20221;-73
2021/03/21 08:01:04;;;;;;;10.13;7.10;;;;;;;2.00;100.00;100424.94;4980022;28;20212;-73
2021/03/21 08:03:42;;;;;;;11.53;7.63;;;;;;;2.04;100.00;100411.28;4982911;28;20281;-73
2021/03/21 08:06:14;;;;;;;11.23;7.23;;;;;;;2.07;100.00;100428.44;4985575;28;20650;-73
2021/03/21 08:08:47;;;;;;;13.53;7.60;;;;;;;2.10;100.00;100415.59;4982812;28;20716;-73
2021/03/21 08:11:18;;;;;;;11.17;7.60;;;;;;;2.09;100.00;100416.44;4978618;28;20218;-73
2021/03/21 08:13:51;;;;;;;11.13;7.43;;;;;;;2.10;100.00;100410.44;4977420;28;20563;-73
2021/03/21 08:16:22;;;;;;;9.77;6.90;;;;;;;2.13;100.00;100410.47;4979819;28;20565;-73
2021/03/21 08:18:49;;;;;;;10.63;6.63;;;;;;;2.15;100.00;100410.47;4978424;28;20303;-73
2021/03/21 08:21:20;;;;;;;10.80;6.90;;;;;;;2.23;100.00;100406.22;4988314;28;20193;-73
2021/03/21 08:23:51;;;;;;;11.23;7.30;;;;;;;2.25;100.00;100404.50;4976471;28;20699;-73
2021/03/21 08:26:25;;;;;;;9.63;6.30;;;;;;;2.26;100.00;100403.66;4986779;28;20225;-73
2021/03/21 08:29:07;;;;;;;10.37;6.67;;;;;;;2.33;100.00;100389.13;4973005;28;20228;-73
2021/03/21 08:31:36;;;;;;;9.40;6.40;;;;;;;2.37;100.00;100394.25;4989884;28;20212;-73
2021/03/21 08:34:30;;;;;;;9.27;6.47;;;;;;;2.48;100.00;100381.44;4974284;28;20634;-73
2021/03/21 08:36:56;;;;;;;9.43;6.30;;;;;;;2.50;100.00;100374.59;4984149;28;20284;-73
2021/03/21 08:39:31;;;;;;;10.33;7.20;;;;;;;2.56;100.00;100384.03;4973948;28;20245;-73
2021/03/21 08:42:00;;;;;;;10.60;7.30;;;;;;;2.58;100.00;100372.88;4981837;28;20288;-73
2021/03/21 08:44:34;;;;;;;16.10;10.07;;;;;;;2.58;100.00;100372.03;4979020;28;20665;-73
2021/03/21 08:47:02;;;;;;;9.73;7.00;;;;;;;2.60;100.00;100375.47;4977434;28;20238;-73
2021/03/21 08:49:35;;;;;;;12.33;7.90;;;;;;;2.67;100.00;100373.75;4977644;28;20280;-73
2021/03/21 08:52:01;;;;;;;9.60;6.87;;;;;;;2.67;100.00;100373.75;4976306;28;20632;-73
2021/03/21 08:54:32;;;;;;;9.27;6.80;;;;;;;2.72;100.00;100367.75;4979339;28;20236;-73
2021/03/21 08:57:05;;;;;;;10.23;6.63;;;;;;;2.71;100.00;100370.31;4992138;28;20217;-73
2021/03/21 08:59:37;;;;;;;9.40;6.67;;;;;;;2.74;100.00;100370.34;4978691;28;20589;-73
2021/03/21 09:02:10;;;;;;;10.40;6.73;;;;;;;2.79;100.00;100368.63;4976162;28;20205;-73
2021/03/21 09:04:40;;;;;;;8.47;5.87;;;;;;;2.87;100.00;100360.91;4977157;28;20534;-73
2021/03/21 09:07:16;;;;;;;10.00;7.07;;;;;;;2.93;100.00;100353.22;4975943;28;20291;-73
2021/03/21 09:09:42;;;;;;;8.67;6.50;;;;;;;2.92;100.00;100351.47;4978562;28;20221;-73
2021/03/21 09:12:31;;;;;;;12.23;7.37;;;;;;;2.94;100.00;100357.50;4975668;28;20208;-73
2021/03/21 09:15:22;;;;;;;9.73;7.17;;;;;;;3.01;100.00;100354.94;4982682;28;20214;-73
2021/03/21 09:18:02;;;;;;;10.00;6.97;;;;;;;3.11;100.00;100347.19;4981543;28;20583;-73
2021/03/21 09:20:30;;;;;;;10.50;6.90;;;;;;;3.19;100.00;100341.19;4979472;28;20233;-73
2021/03/21 09:22:56;;;;;;;10.63;6.80;;;;;;;3.21;100.00;100338.63;4976726;28;20196;-73
2021/03/21 09:25:25;;;;;;;9.33;6.67;;;;;;;3.22;100.00;100341.19;4982321;28;20317;-73
2021/03/21 09:27:51;;;;;;;8.03;5.90;;;;;;;3.26;100.00;100347.19;4974762;28;20240;-73
2021/03/21 09:30:21;;;;;;;9.80;6.37;;;;;;;3.33;100.00;100338.59;4977497;28;20236;-73
2021/03/21 09:32:51;;;;;;;10.23;7.47;;;;;;;3.43;100.00;100342.03;4983424;28;20437;-73
2021/03/21 09:35:40;;;;;;;10.23;7.30;;;;;;;3.51;100.00;100339.44;4980548;28;20197;-73
2021/03/21 09:38:12;;;;;;;9.23;5.90;;;;;;;3.54;100.00;100329.13;4994172;28;20244;-73
2021/03/21 09:40:40;;;;;;;8.37;6.10;;;;;;;3.63;100.00;100331.69;4981016;28;20728;-73
2021/03/21 09:43:12;;;;;;;6.63;4.83;;;;;;;3.69;100.00;100330.81;4987110;28;20196;-73
2021/03/21 09:45:41;;;;;;;6.93;5.00;;;;;;;3.76;100.00;100329.91;4981121;28;20276;-73
2021/03/21 09:48:15;;;;;;;6.70;4.70;;;;;;;3.82;100.00;100326.44;4990834;28;20189;-74
2021/03/21 09:50:59;;;;;;;6.20;4.60;;;;;;;3.94;100.00;100336.72;4984328;28;21382;-73
2021/03/21 09:53:57;;;;;;;6.30;4.53;;;;;;;3.97;100.00;100327.28;4982322;28;20226;-73
2021/03/21 09:56:36;;;;;;;6.50;4.27;;;;;;;4.08;100.00;100339.25;4984660;28;20635;-73
2021/03/21 09:59:13;;;;;;;5.53;3.87;;;;;;;4.16;100.00;100340.94;4982534;28;20796;-73
2021/03/21 10:01:43;;;;;;;5.43;3.73;;;;;;;4.20;100.00;100338.38;4979878;28;20739;-73
2021/03/21 10:04:20;;;;;;;6.53;4.50;;;;;;;4.24;100.00;100334.88;4981844;28;20287;-73
2021/03/21 10:06:50;;;;;;;14.07;7.97;;;;;;;4.22;100.00;100337.50;4978465;28;20231;-73
2021/03/21 10:09:19;;;;;;;7.20;4.53;;;;;;;4.28;100.00;100339.19;4979634;28;20287;-73
2021/03/21 10:11:48;;;;;;;6.77;3.40;;;;;;;4.25;100.00;100337.47;4986048;28;20205;-73
2021/03/21 10:14:40;;;;;;;4.93;3.73;;;;;;;4.18;100.00;100338.38;4982215;28;20299;-73
2021/03/21 10:17:41;;;;;;;6.90;4.20;;;;;;;4.20;100.00;100333.19;4978839;28;20573;-73
2021/03/21 10:20:08;;;;;;;4.57;3.23;;;;;;;4.20;100.00;100346.94;4982730;28;20224;-73
2021/03/21 10:22:58;;;;;;;5.17;2.83;;;;;;;4.17;100.00;100345.25;4978577;28;20208;-73
2021/03/21 10:25:57;;;;;;;4.00;3.03;;;;;;;4.20;100.00;100341.78;4971891;28;20588;-73
2021/03/21 10:28:45;;;;;;;3.57;2.87;;;;;;;4.26;100.00;100362.44;4989738;28;20693;-73
2021/03/21 10:31:29;;;;;;;2.37;2.17;;;;;;;4.31;100.00;100355.53;4988019;28;20258;-73
2021/03/21 10:34:16;;;;;;;4.90;2.70;;;;;;;4.38;100.00;100353.78;4988103;28;20228;-74
2021/03/21 10:36:45;;;;;;;4.23;2.83;;;;;;;4.48;100.00;100358.00;4982212;28;20197;-74
2021/03/21 10:39:24;;;;;;;3.50;2.40;;;;;;;4.44;100.00;100361.47;4993331;28;20643;-74
2021/03/21 10:41:59;;;;;;;3.33;2.10;;;;;;;4.45;100.00;100362.31;4977923;28;20631;-73
2021/03/21 10:44:56;;;;;;;2.07;1.80;;;;;;;4.43;100.00;100377.81;4985087;28;20639;-73
2021/03/21 10:47:42;;;;;;;5.27;1.27;;;;;;;4.51;100.00;100368.31;4979959;28;20211;-72
2021/03/21 10:50:35;;;;;;;3.40;2.10;;;;;;;4.72;100.00;100369.06;4991144;28;20225;-72
2021/03/21 10:53:23;;;;;;;3.43;2.40;;;;;;;4.97;100.00;100368.91;4983849;28;20228;-73
2021/03/21 10:56:08;;;;;;;4.57;2.27;;;;;;;5.07;100.00;100366.25;4985394;28;20570;-73
2021/03/21 10:59:09;;;;;;;8.47;3.93;;;;;;;5.16;99.77;100369.63;4978854;28;20229;-73
2021/03/21 11:01:38;;;;;;;9.30;4.83;;;;;;;5.25;99.11;100359.22;4932035;28;20220;-73
2021/03/21 11:04:21;;;;;;;6.90;3.70;;;;;;;5.29;95.43;100363.47;4976397;28;20788;-73
2021/03/21 11:07:11;;;;;;;3.93;2.53;;;;;;;5.35;92.81;100371.19;4977363;28;20333;-73
2021/03/21 11:09:51;;;;;;;3.73;1.97;;;;;;;5.57;93.96;100366.66;4977350;28;20244;-73
2021/03/21 11:12:28;;;;;;;3.80;1.77;;;;;;;5.69;92.96;100374.31;4976816;28;20295;-73
2021/03/21 11:14:54;;;;;;;1.73;1.63;;;;;;;5.73;91.73;100363.94;4980782;28;20312;-73
2021/03/21 11:17:22;;;;;;;3.40;1.80;;;;;;;5.72;90.70;100380.31;4989419;28;20201;-73
2021/03/21 11:19:51;;;;;;;3.13;1.73;;;;;;;5.59;89.01;100377.84;4975934;28;20268;-73
2021/03/21 11:22:31;;;;;;;2.40;1.63;;;;;;;5.56;91.91;100371.84;4985698;28;20740;-73
2021/03/21 11:24:58;;;;;;;5.07;3.70;;;;;;;5.40;93.40;100377.19;4977946;28;20208;-73
2021/03/21 11:27:29;;;;;;;4.03;1.80;;;;;;;5.26;90.83;100376.44;4983681;28;20207;-73
2021/03/21 11:30:08;;;;;;;13.63;6.20;;;;;;;5.36;93.03;100377.22;4984216;28;20226;-73
2021/03/21 11:32:34;;;;;;;5.17;3.10;;;;;;;5.40;93.43;100377.19;4980741;28;20224;-73
2021/03/21 11:35:03;;;;;;;3.23;2.53;;;;;;;5.36;92.12;100372.03;4973169;28;20280;-73
2021/03/21 11:37:31;;;;;;;7.63;2.40;;;;;;;5.27;92.11;100378.13;4977887;28;20256;-73
2021/03/21 11:40:03;;;;;;;4.47;3.10;;;;;;;5.22;92.04;100390.25;4985092;28;20228;-73
2021/03/21 11:42:33;;;;;;;5.00;2.43;;;;;;;5.23;92.77;100391.97;4980292;28;20216;-73
2021/03/21 11:45:22;;;;;;;6.47;2.57;;;;;;;5.26;92.10;100397.13;4980528;28;20240;-73
2021/03/21 11:47:50;;;;;;;6.03;2.60;;;;;;;5.24;90.42;100394.56;4977044;28;20209;-73
2021/03/21 11:50:19;;;;;;;4.77;2.40;;;;;;;5.26;90.71;100397.97;4987283;28;20237;-73
2021/03/21 11:52:46;;;;;;;6.90;2.53;;;;;;;5.21;90.24;100396.31;4978688;28;20232;-73
2021/03/21 11:55:17;;;;;;;2.97;2.30;;;;;;;5.18;90.59;100393.72;4984104;28;20596;-73
2021/03/21 11:57:57;;;;;;;6.80;2.47;;;;;;;5.14;91.28;100400.66;4975872;28;20288;-73
2021/03/21 12:00:27;;;;;;;4.33;1.97;;;;;;;5.10;90.62;100407.56;4980919;28;20229;-73
2021/03/21 12:02:59;;;;;;;4.93;2.53;;;;;;;5.10;90.15;100401.53;4977291;28;20232;-73
2021/03/21 12:05:28;;;;;;;3.77;2.20;;;;;;;5.05;89.70;100409.34;4979656;28;20220;-73